Disclaimer   
PNR Super Search
 ♦ 
×
HashTag:
PNR Number:
Train Type:
Train:
From Station:
To Station:
Train Class:
2SSLCCEx3AFC2A1A3E
WL Quota:
DOJ From:
DOJ To:
Blogger:
Traveller:
Predictor:
Prediction:
WLRACConf
Stamper:
Final:
WLRACConfVoidQ-ConfUnStamped
Status:
Reaction:

Search
  Go  
 
Tue Jul 28, 2015 18:52:44 ISTHomeTrainsΣChainsAtlasPNRForumGalleryNewsFAQTripsMembersLoginFeedback
Tue Jul 28, 2015 18:52:44 IST
Post PNRPNR StatusModify Search

Ticket PNR Status Inquiry - PNR: 213-xxxxxxx (E-Ticket)

OLD STATUS

Status Last Updated on: Jul 15 2012 (4:19PM) IST

Date of Journey: Sun Aug 05, 2012   Class: AC 3-tier - 3A   (Total Seats available for this Class/Quota: Avbl 59)
Passenger 1: Confirmed (Booking Status: B1,40,GN)
Chart NOT Prepared

Amritsar - Mumbai CST (Pathankot) Express/11058

Travel Time: 22h 28m    47 halts    Distance: 1125 km    Avg Speed: 50 km/hr
Peak Observed Speed: n/a
Type: Mail/Express
Zone: CR/Central
Departs @ 20:50 (Avg 13m late)
Platform# 4
SMTWTFS
NDLS/New Delhi 
Arrives @ 19:18 +1 night (Avg 1h 55m late)
Platform# 2
SMTWTFS
JL/Jalgaon Junction 

47 halts. 156 intermediate Stations between New Delhi and Jalgaon Junction

Show ALL intermediate Stations  Show Old Time-Table

#TrkCodeStation NameX/OArrivesAvgDepartsAvgHaltPFDay#KmSpeedElevZoneAddress
1/==/ASRAmritsar Junction  -08:30+1041-502.977233mNRAmritsar 143001, Punjab
2/==/JNLJandialaX  08:45+2008:47+202m21-483.768238mNRJandiala, Punjab
3/==/BEASBeas JunctionX  09:08+1909:10+192m21-459.961238mNRBeas, Punjab
4/==/KREKartarpurX  09:31+1709:33+172m11-438.473236mNRKartarpur, Punjab
5/==/JUCJalandhar City JunctionX  09:45+2209:55+2010m21-423.818239mNRJalandhar 144001, Punjab
6/==/JRCJalandhar Cantt. JunctionX  10:11+1310:13+132m21-418.970239mNRNear Rama Mandi, Punjab
7/==/PGWPhagwara JunctionX  10:27+1410:29+142m11-402.654245mNRPhagwara, Punjab
8/==/GRYGoraya  10:40+1510:42+152m11-392.864240mNRGoraya, Punjab
9/==/PHRPhillaur JunctionX  10:54+1510:56+152m11-380.133246mNRPhillaur, Punjab
10/==/LDHLudhiana Junction  11:20+911:30+1910m41-367.029246mNRLudhiana 141001, Punjab
11|--|AHHAhmadgarh  12:23+712:25+82m11-341.679256mNRAhmedgarh, Punjab
12|--|METMalerkotlaX  12:40+1412:42+142m21-321.753248mNRMalerkotla., Punjab
13|--|DUIDhuri Junction  13:01+1513:04+173m--1-304.973248mNRDhuri, Punjab
14|--|NBANabha  13:26+2413:28+242m11-278.070250mNRNabha, Punjab
15|--|PTAPatialaX  13:50+2813:53+323m11-252.137256mNRPatiala 147001, Punjab
16|--|RPJRajpura JunctionOO  14:33+2214:35+232m21-227.359272mNRNH-1., Punjab
17/==/UBCAmbala CityXO  14:56+2114:58+222m11-206.821273mNRNH-1, Haryana
18/==/UMBAmbala Cantt. JunctionXO15:20+1615:55+4635m--1-199.285278mNRAmbala 133001, Haryana
19/==/SHDMShahbad Markanda  16:09+2116:11+212m11-179.378267mNRShahabad Markanda, Haryana
20/==/KKDEKurukshetra JunctionX  16:28+2416:30+242m21-157.160260mNRKurukshetra, Haryana
21/==/NLKRNilokheriX  16:47+2316:49+242m--1-140.134254mNRNilokheri, Haryana
22/==/TRRTaraoriX  16:56+2316:58+262m21-136.140255mNRTaraori, Haryana
23/==/KUNKarnal  17:16+2217:18+232m11-124.066253mNRKarnal, Haryana
24/==/GRAGharaunda  17:34+2217:36+222m11-106.656244mNRGharaunda, Haryana
25/==/PNPPanipat JunctionX  17:54+2017:56+212m21-89.660235mNRPanipat, Haryana
26/==/SMKSamalkha  18:13+1918:15+202m11-72.657229mNRSamalkha, Haryana
27/==/GNUGanaur  18:28+1718:30+182m11-60.460222mNRGanaur, Haryana
28/==/SNPSonipat  18:46+1918:48+192m11-44.548225mNRSonipat, Haryana
29/==/RDDERathdhana  19:01+1819:03+182m11-34.050223mNRSonipat, Haryana
30/==/NURNarela  19:11+1819:13+182m11-27.459222mNRNarela, Delhi NCT
31/==/ANDIAdarsh Nagar  19:30+1719:32+172m11-10.721214mNRShalimar Bagh, Delhi NCT
32/==/SZMSabzi Mandi  19:51+1519:53+192m31-4.19220mNRGulabi Bagh, Delhi NCT
33/==/NDLSNew Delhi»X  20:20+1620:50+1330m410.034215mNRAjmeri Gate 110002, Delhi NCT
34/==/NZMHazrat NizamuddinX  21:03+2021:05+212m417.457209mNRNew Delhi 110013, Delhi NCT
35/==/FDBFaridabadX  21:27+2321:29+252m3128.237206mNRold Faridabad, Haryana
36/==/BVHBallabgarhO  21:42+2521:44+272m4136.229203mNRFaridabad, Haryana
37/==/PWLPalwal  22:28+722:30+92m5157.485200mNRPalwal, Haryana
38/==/KSVKosi Kalan  23:00+1723:02+182m2199.975189mNCRKosi Kalan, Uttar Pradesh
39/==/MTJMathura Junction  23:35+2023:40+215m11141.356179mNCRMathura, Uttar Pradesh
40/==/RKMRaja Ki MandiX  00:33+1800:35+182m22191.012170mNCRAgra, Uttar Pradesh
41/==/AGCAgra Cantt.X  00:55+1001:03+198m12195.079174mNCRAgra, Uttar Pradesh
42/==/DHODholpur JunctionXO  01:43+2201:45+232m22247.673177mNCRDholpur, Rajasthan
43/==/MRAMorenaX  02:07+2702:09+292m12274.556176mNCRMorena, Madhya Pradesh
44/==/GWLGwalior JunctionX  02:50+2402:58+238m12313.073214mNCRGwalior, Madhya Pradesh
45/==/DBADabraX  03:33+3103:35+312m22355.349207mNCRDabra(District-Gwalior), Madhya Pradesh
46/==/SORSonagirX  03:58+2804:00+312m--2374.246211mNCRDatia, Madhya Pradesh
47/==/DAADatiaX  04:15+3004:17+312m22385.746264mNCRDatia, Madhya Pradesh
48/==/JHSJhansi JunctionX  04:50+2805:00+3210m52410.761259mNCRJhansi, Uttar Pradesh
49/==/BABBabinaX  05:25+4605:27+462m12436.252285mNCRBabina, Uttar Pradesh
50/==/BZYBasai  05:41+4705:43+492m12448.351287mNCR07522289600, Madhya Pradesh
51/==/TBTTalbahatX  05:58+4806:00+532m12461.252314mNCRKhaniyadhana Station Rd, Madhya Pradesh
52/==/LARLalitpurX  06:46+4106:48+452m22501.177373mNCRLalitpur, Uttar Pradesh
53/==/JLNJakhalaunO  07:01+5007:03+522m22517.899394mNCRLalitpur(05176-272220), Uttar Pradesh
54/==/DUADhauraXO  07:10+5707:12+1:012m--2529.420407mNCRDhaura Tanda, Madhya Pradesh
55/==/BINABina JunctionX  08:55+1009:00+145m32564.069414mWCRBina District Saugor, Madhya Pradesh
56/==/MABAMandi BamoraX  09:15+2109:17+212m22581.278413mWCRState Highway 14 District Vidisha, Madhya Pradesh
57/==/BAQGanj BasodaX  09:39+2409:41+252m22609.769415mWCRDistrict Vidisha, Madhya Pradesh
58/==/GLGGulabGanjX  09:57+2609:59+272m--2628.074433mWCRVidisha, Madhya Pradesh
59/==/BHSVidishaX  10:16+3110:18+312m22649.056433mWCRVidisha, Madhya Pradesh
60/==/SCISanchiX  10:28+3310:30+332m--2658.466428mWCRRaisen, Madhya Pradesh
61/==/BPLBhopal JunctionX  11:10+4511:15+525m12702.538497mWCRBhopal, Madhya Pradesh
62/==/HBJBhopal HabibGanj  11:25+5211:27+542m42708.864496mWCRHabibGanj, Madhya Pradesh
63/==/MDDPMandi Dip  11:42+5911:44+1:002m12724.962455mWCRHoshangabad Road Mandideep District Raisen, Madhya Pradesh
64/==/ODGObaidulla Ganj  11:57+1:0411:59+1:042m12738.454448mWCRObaidullaganj Raisen Dist., Madhya Pradesh
65/==/